sensor_id;sensor_type;location;lat;lon;timestamp;pressure;altitude;pressure_sealevel;temperature;humidity
35577;BME280;21680;52.400;16.920;2023-02-23T00:00:30;100973.08;;;-0.14;78.52
35577;BME280;21680;52.400;16.920;2023-02-23T00:02:59;100972.38;;;-0.15;78.48
35577;BME280;21680;52.400;16.920;2023-02-23T00:05:27;100970.61;;;-0.16;78.53
35577;BME280;21680;52.400;16.920;2023-02-23T00:07:53;100968.50;;;-0.16;78.50
35577;BME280;21680;52.400;16.920;2023-02-23T00:10:19;100969.37;;;-0.17;78.44
35577;BME280;21680;52.400;16.920;2023-02-23T00:12:46;100969.73;;;-0.18;78.47
35577;BME280;21680;52.400;16.920;2023-02-23T00:15:14;100962.52;;;-0.17;78.34
35577;BME280;21680;52.400;16.920;2023-02-23T00:17:40;100962.17;;;-0.18;78.51
35577;BME280;21680;52.400;16.920;2023-02-23T00:20:08;100958.83;;;-0.19;78.54
35577;BME280;21680;52.400;16.920;2023-02-23T00:22:40;100956.54;;;-0.20;78.49
35577;BME280;21680;52.400;16.920;2023-02-23T00:25:07;100957.94;;;-0.21;78.50
35577;BME280;21680;52.400;16.920;2023-02-23T00:27:35;100959.34;;;-0.21;78.59
35577;BME280;21680;52.400;16.920;2023-02-23T00:30:02;100957.76;;;-0.22;78.62
35577;BME280;21680;52.400;16.920;2023-02-23T00:32:28;100953.18;;;-0.23;78.50
35577;BME280;21680;52.400;16.920;2023-02-23T00:34:53;100953.01;;;-0.23;78.62
35577;BME280;21680;52.400;16.920;2023-02-23T00:37:21;100950.54;;;-0.25;78.53
35577;BME280;21680;52.400;16.920;2023-02-23T00:39:47;100949.48;;;-0.24;78.53
35577;BME280;21680;52.400;16.920;2023-02-23T00:42:12;100949.48;;;-0.25;78.61
35577;BME280;21680;52.400;16.920;2023-02-23T00:44:38;100947.89;;;-0.27;78.64
35577;BME280;21680;52.400;16.920;2023-02-23T00:47:05;100951.75;;;-0.29;78.74
35577;BME280;21680;52.400;16.920;2023-02-23T00:49:31;100952.80;;;-0.29;78.64
35577;BME280;21680;52.400;16.920;2023-02-23T00:51:57;100950.50;;;-0.32;78.68
35577;BME280;21680;52.400;16.920;2023-02-23T00:54:22;100950.50;;;-0.33;78.72
35577;BME280;21680;52.400;16.920;2023-02-23T00:56:49;100950.85;;;-0.32;78.58
35577;BME280;21680;52.400;16.920;2023-02-23T00:59:14;100950.14;;;-0.35;78.67
35577;BME280;21680;52.400;16.920;2023-02-23T01:01:41;100951.02;;;-0.35;78.70
35577;BME280;21680;52.400;16.920;2023-02-23T01:04:07;100948.02;;;-0.36;78.61
35577;BME280;21680;52.400;16.920;2023-02-23T01:06:33;100948.19;;;-0.38;78.63
35577;BME280;21680;52.400;16.920;2023-02-23T01:09:09;100942.57;;;-0.38;78.69
35577;BME280;21680;52.400;16.920;2023-02-23T01:11:35;100942.21;;;-0.39;78.84
35577;BME280;21680;52.400;16.920;2023-02-23T01:14:00;100942.03;;;-0.39;78.75
35577;BME280;21680;52.400;16.920;2023-02-23T01:16:29;100941.14;;;-0.41;78.61
35577;BME280;21680;52.400;16.920;2023-02-23T01:18:57;100942.55;;;-0.41;78.86
35577;BME280;21680;52.400;16.920;2023-02-23T01:21:26;100937.80;;;-0.42;78.66
35577;BME280;21680;52.400;16.920;2023-02-23T01:23:52;100938.85;;;-0.43;78.85
35577;BME280;21680;52.400;16.920;2023-02-23T01:26:29;100938.33;;;-0.43;78.85
35577;BME280;21680;52.400;16.920;2023-02-23T01:28:58;100938.34;;;-0.43;78.77
35577;BME280;21680;52.400;16.920;2023-02-23T01:31:25;100938.14;;;-0.43;78.74
35577;BME280;21680;52.400;16.920;2023-02-23T01:33:58;100938.50;;;-0.44;78.78
35577;BME280;21680;52.400;16.920;2023-02-23T01:36:25;100933.77;;;-0.43;78.81
35577;BME280;21680;52.400;16.920;2023-02-23T01:38:53;100931.48;;;-0.44;78.88
35577;BME280;21680;52.400;16.920;2023-02-23T01:41:22;100933.75;;;-0.44;78.81
35577;BME280;21680;52.400;16.920;2023-02-23T01:46:43;100926.02;;;-0.47;78.79
35577;BME280;21680;52.400;16.920;2023-02-23T01:49:25;100926.36;;;-0.47;78.93
35577;BME280;21680;52.400;16.920;2023-02-23T01:51:57;100920.75;;;-0.48;78.94
35577;BME280;21680;52.400;16.920;2023-02-23T01:54:48;100919.33;;;-0.50;78.72
35577;BME280;21680;52.400;16.920;2023-02-23T01:57:15;100919.50;;;-0.51;78.78
35577;BME280;21680;52.400;16.920;2023-02-23T01:59:44;100917.20;;;-0.53;78.89
35577;BME280;21680;52.400;16.920;2023-02-23T02:02:10;100918.06;;;-0.55;78.81
35577;BME280;21680;52.400;16.920;2023-02-23T02:04:38;100912.80;;;-0.56;79.04
35577;BME280;21680;52.400;16.920;2023-02-23T02:07:25;100910.33;;;-0.57;78.73
35577;BME280;21680;52.400;16.920;2023-02-23T02:09:55;100909.45;;;-0.58;78.86
35577;BME280;21680;52.400;16.920;2023-02-23T02:12:45;100908.04;;;-0.59;79.11
35577;BME280;21680;52.400;16.920;2023-02-23T02:15:16;100906.98;;;-0.59;78.94
35577;BME280;21680;52.400;16.920;2023-02-23T02:29:06;100896.27;;;-0.61;79.07
35577;BME280;21680;52.400;16.920;2023-02-23T02:31:48;100891.52;;;-0.61;79.04
35577;BME280;21680;52.400;16.920;2023-02-23T02:37:23;100890.83;;;-0.62;79.06
35577;BME280;21680;52.400;16.920;2023-02-23T02:45:27;100887.13;;;-0.64;79.17
35577;BME280;21680;52.400;16.920;2023-02-23T02:51:05;100881.67;;;-0.66;79.15
35577;BME280;21680;52.400;16.920;2023-02-23T02:54:13;100876.92;;;-0.68;79.07
35577;BME280;21680;52.400;16.920;2023-02-23T02:56:43;100875.17;;;-0.68;79.16
35577;BME280;21680;52.400;16.920;2023-02-23T02:59:12;100873.77;;;-0.67;79.20
35577;BME280;21680;52.400;16.920;2023-02-23T03:01:57;100867.63;;;-0.67;79.22
35577;BME280;21680;52.400;16.920;2023-02-23T03:04:42;100868.15;;;-0.68;79.24
35577;BME280;21680;52.400;16.920;2023-02-23T03:07:33;100864.64;;;-0.68;79.28
35577;BME280;21680;52.400;16.920;2023-02-23T03:10:35;100864.81;;;-0.70;79.17
35577;BME280;21680;52.400;16.920;2023-02-23T03:20:25;100858.31;;;-0.69;79.28
35577;BME280;21680;52.400;16.920;2023-02-23T03:22:57;100854.10;;;-0.69;79.47
35577;BME280;21680;52.400;16.920;2023-02-23T03:29:05;100852.70;;;-0.70;79.33
35577;BME280;21680;52.400;16.920;2023-02-23T03:32:17;100855.15;;;-0.70;79.49
35577;BME280;21680;52.400;16.920;2023-02-23T03:35:13;100844.98;;;-0.69;79.37
35577;BME280;21680;52.400;16.920;2023-02-23T03:38:17;100848.14;;;-0.68;79.67
35577;BME280;21680;52.400;16.920;2023-02-23T03:41:02;100847.27;;;-0.67;79.42
35577;BME280;21680;52.400;16.920;2023-02-23T03:43:52;100843.93;;;-0.68;79.49
35577;BME280;21680;52.400;16.920;2023-02-23T03:46:39;100839.20;;;-0.67;79.52
35577;BME280;21680;52.400;16.920;2023-02-23T03:49:26;100839.55;;;-0.67;79.62
35577;BME280;21680;52.400;16.920;2023-02-23T03:52:16;100839.90;;;-0.67;79.56
35577;BME280;21680;52.400;16.920;2023-02-23T03:55:06;100837.45;;;-0.67;79.59
35577;BME280;21680;52.400;16.920;2023-02-23T03:57:54;100836.05;;;-0.66;79.65
35577;BME280;21680;52.400;16.920;2023-02-23T04:00:46;100834.65;;;-0.65;79.68
35577;BME280;21680;52.400;16.920;2023-02-23T04:03:35;100832.71;;;-0.66;79.60
35577;BME280;21680;52.400;16.920;2023-02-23T04:06:23;100833.59;;;-0.65;79.68
35577;BME280;21680;52.400;16.920;2023-02-23T04:09:09;100835.70;;;-0.63;79.80
35577;BME280;21680;52.400;16.920;2023-02-23T04:11:58;100834.84;;;-0.62;79.79
35577;BME280;21680;52.400;16.920;2023-02-23T04:14:56;100829.40;;;-0.62;79.62
35577;BME280;21680;52.400;16.920;2023-02-23T04:17:27;100828.87;;;-0.62;79.88
35577;BME280;21680;52.400;16.920;2023-02-23T04:19:54;100827.28;;;-0.63;79.78
35577;BME280;21680;52.400;16.920;2023-02-23T04:22:21;100831.66;;;-0.65;79.74
35577;BME280;21680;52.400;16.920;2023-02-23T04:24:46;100828.33;;;-0.65;79.91
35577;BME280;21680;52.400;16.920;2023-02-23T04:27:12;100829.39;;;-0.64;79.84
35577;BME280;21680;52.400;16.920;2023-02-23T04:29:38;100822.38;;;-0.63;79.88
35577;BME280;21680;52.400;16.920;2023-02-23T04:32:04;100819.38;;;-0.65;79.97
35577;BME280;21680;52.400;16.920;2023-02-23T04:34:30;100815.52;;;-0.64;79.70
35577;BME280;21680;52.400;16.920;2023-02-23T04:36:55;100814.99;;;-0.65;79.94
35577;BME280;21680;52.400;16.920;2023-02-23T04:39:21;100812.02;;;-0.65;79.69
35577;BME280;21680;52.400;16.920;2023-02-23T04:41:46;100809.37;;;-0.66;79.92
35577;BME280;21680;52.400;16.920;2023-02-23T04:44:15;100807.27;;;-0.66;79.95
35577;BME280;21680;52.400;16.920;2023-02-23T04:46:40;100807.96;;;-0.67;80.01
35577;BME280;21680;52.400;16.920;2023-02-23T04:49:06;100800.77;;;-0.68;79.87
35577;BME280;21680;52.400;16.920;2023-02-23T04:51:31;100800.06;;;-0.68;79.89
35577;BME280;21680;52.400;16.920;2023-02-23T04:53:58;100797.25;;;-0.69;80.00
35577;BME280;21680;52.400;16.920;2023-02-23T04:56:24;100797.77;;;-0.70;79.92
35577;BME280;21680;52.400;16.920;2023-02-23T04:58:50;100791.10;;;-0.71;79.99
35577;BME280;21680;52.400;16.920;2023-02-23T05:01:16;100790.56;;;-0.72;80.07
35577;BME280;21680;52.400;16.920;2023-02-23T05:03:42;100793.20;;;-0.72;80.01
35577;BME280;21680;52.400;16.920;2023-02-23T05:06:07;100788.11;;;-0.73;80.06
35577;BME280;21680;52.400;16.920;2023-02-23T05:08:32;100791.44;;;-0.74;79.92
35577;BME280;21680;52.400;16.920;2023-02-23T05:10:58;100787.23;;;-0.76;80.09
35577;BME280;21680;52.400;16.920;2023-02-23T05:13:23;100787.91;;;-0.77;80.15
35577;BME280;21680;52.400;16.920;2023-02-23T05:15:48;100787.38;;;-0.79;80.12
35577;BME280;21680;52.400;16.920;2023-02-23T05:18:14;100786.66;;;-0.80;79.99
35577;BME280;21680;52.400;16.920;2023-02-23T05:20:43;100785.80;;;-0.81;80.30
35577;BME280;21680;52.400;16.920;2023-02-23T05:23:12;100782.98;;;-0.83;80.16
35577;BME280;21680;52.400;16.920;2023-02-23T05:25:38;100782.80;;;-0.83;80.07
35577;BME280;21680;52.400;16.920;2023-02-23T05:28:04;100782.63;;;-0.82;80.30
35577;BME280;21680;52.400;16.920;2023-02-23T05:30:30;100784.55;;;-0.84;80.08
35577;BME280;21680;52.400;16.920;2023-02-23T05:32:55;100783.31;;;-0.84;80.27
35577;BME280;21680;52.400;16.920;2023-02-23T05:35:21;100781.56;;;-0.84;80.20
35577;BME280;21680;52.400;16.920;2023-02-23T05:37:46;100777.16;;;-0.86;80.33
35577;BME280;21680;52.400;16.920;2023-02-23T05:40:12;100774.35;;;-0.87;80.18
35577;BME280;21680;52.400;16.920;2023-02-23T05:42:37;100772.08;;;-0.87;80.35
35577;BME280;21680;52.400;16.920;2023-02-23T05:45:03;100771.19;;;-0.87;80.36
35577;BME280;21680;52.400;16.920;2023-02-23T05:47:30;100772.59;;;-0.88;80.29
35577;BME280;21680;52.400;16.920;2023-02-23T05:49:56;100772.94;;;-0.89;80.47
35577;BME280;21680;52.400;16.920;2023-02-23T05:52:21;100771.19;;;-0.88;80.39
35577;BME280;21680;52.400;16.920;2023-02-23T05:54:47;100771.53;;;-0.89;80.50
35577;BME280;21680;52.400;16.920;2023-02-23T05:57:12;100775.21;;;-0.88;80.37
35577;BME280;21680;52.400;16.920;2023-02-23T05:59:38;100771.53;;;-0.90;80.48
35577;BME280;21680;52.400;16.920;2023-02-23T06:02:03;100767.14;;;-0.91;80.39
35577;BME280;21680;52.400;16.920;2023-02-23T06:04:30;100765.39;;;-0.90;80.68
35577;BME280;21680;52.400;16.920;2023-02-23T06:06:55;100759.44;;;-0.89;80.64
35577;BME280;21680;52.400;16.920;2023-02-23T06:09:21;100758.20;;;-0.90;80.56
35577;BME280;21680;52.400;16.920;2023-02-23T06:11:46;100758.73;;;-0.91;80.56
35577;BME280;21680;52.400;16.920;2023-02-23T06:14:11;100760.14;;;-0.88;80.46
35577;BME280;21680;52.400;16.920;2023-02-23T06:16:37;100758.04;;;-0.87;80.66
35577;BME280;21680;52.400;16.920;2023-02-23T06:19:03;100755.23;;;-0.87;80.58
35577;BME280;21680;52.400;16.920;2023-02-23T06:21:28;100752.60;;;-0.88;80.55
35577;BME280;21680;52.400;16.920;2023-02-23T06:23:53;100749.44;;;-0.87;80.68
35577;BME280;21680;52.400;16.920;2023-02-23T06:26:19;100747.34;;;-0.86;80.65
35577;BME280;21680;52.400;16.920;2023-02-23T06:28:44;100746.47;;;-0.85;80.72
35577;BME280;21680;52.400;16.920;2023-02-23T06:31:10;100744.38;;;-0.83;80.89
35577;BME280;21680;52.400;16.920;2023-02-23T06:33:35;100745.61;;;-0.80;80.86
35577;BME280;21680;52.400;16.920;2023-02-23T06:36:01;100741.94;;;-0.78;80.80
35577;BME280;21680;52.400;16.920;2023-02-23T06:38:26;100746.51;;;-0.76;80.84
35577;BME280;21680;52.400;16.920;2023-02-23T06:40:52;100748.27;;;-0.74;80.86
35577;BME280;21680;52.400;16.920;2023-02-23T06:43:17;100751.45;;;-0.71;80.93
35577;BME280;21680;52.400;16.920;2023-02-23T06:45:42;100755.32;;;-0.68;80.81
35577;BME280;21680;52.400;16.920;2023-02-23T06:48:08;100757.79;;;-0.65;81.07
35577;BME280;21680;52.400;16.920;2023-02-23T06:50:33;100759.39;;;-0.61;81.12
35577;BME280;21680;52.400;16.920;2023-02-23T06:52:58;100762.20;;;-0.58;81.00
35577;BME280;21680;52.400;16.920;2023-02-23T06:55:24;100766.77;;;-0.55;81.09
35577;BME280;21680;52.400;16.920;2023-02-23T06:57:50;100762.05;;;-0.53;81.12
35577;BME280;21680;52.400;16.920;2023-02-23T07:00:17;100764.34;;;-0.49;81.20
35577;BME280;21680;52.400;16.920;2023-02-23T07:02:44;100763.13;;;-0.45;81.30
35577;BME280;21680;52.400;16.920;2023-02-23T07:05:10;100758.05;;;-0.41;81.17
35577;BME280;21680;52.400;16.920;2023-02-23T07:07:35;100757.00;;;-0.36;81.15
35577;BME280;21680;52.400;16.920;2023-02-23T07:10:01;100755.97;;;-0.32;81.27
35577;BME280;21680;52.400;16.920;2023-02-23T07:12:29;100757.38;;;-0.29;81.24
35577;BME280;21680;52.400;16.920;2023-02-23T07:14:55;100756.16;;;-0.24;81.33
35577;BME280;21680;52.400;16.920;2023-02-23T07:17:20;100755.64;;;-0.21;81.41
35577;BME280;21680;52.400;16.920;2023-02-23T07:19:45;100752.84;;;-0.17;81.43
35577;BME280;21680;52.400;16.920;2023-02-23T07:22:10;100752.14;;;-0.15;81.23
35577;BME280;21680;52.400;16.920;2023-02-23T07:24:36;100748.11;;;-0.13;81.39
35577;BME280;21680;52.400;16.920;2023-02-23T07:27:02;100750.56;;;-0.08;81.51
35577;BME280;21680;52.400;16.920;2023-02-23T07:29:28;100751.11;;;-0.04;81.47
35577;BME280;21680;52.400;16.920;2023-02-23T07:31:54;100748.98;;;0.00;81.51
35577;BME280;21680;52.400;16.920;2023-02-23T07:34:19;100745.81;;;0.05;81.51
35577;BME280;21680;52.400;16.920;2023-02-23T07:36:45;100741.25;;;0.08;81.65
35577;BME280;21680;52.400;16.920;2023-02-23T07:39:10;100739.48;;;0.13;81.58
35577;BME280;21680;52.400;16.920;2023-02-23T07:41:37;100737.91;;;0.17;81.50
35577;BME280;21680;52.400;16.920;2023-02-23T07:44:02;100735.98;;;0.21;81.73
35577;BME280;21680;52.400;16.920;2023-02-23T07:46:27;100737.03;;;0.26;81.69
35577;BME280;21680;52.400;16.920;2023-02-23T07:48:53;100735.80;;;0.31;81.72
35577;BME280;21680;52.400;16.920;2023-02-23T07:51:18;100731.05;;;0.35;81.76
35577;BME280;21680;52.400;16.920;2023-02-23T07:53:43;100730.70;;;0.39;81.71
35577;BME280;21680;52.400;16.920;2023-02-23T07:56:10;100732.27;;;0.43;81.71
35577;BME280;21680;52.400;16.920;2023-02-23T07:58:41;100730.88;;;0.45;81.75
35577;BME280;21680;52.400;16.920;2023-02-23T08:01:07;100722.95;;;0.48;81.71
35577;BME280;21680;52.400;16.920;2023-02-23T08:03:33;100724.02;;;0.50;81.81
35577;BME280;21680;52.400;16.920;2023-02-23T08:05:58;100724.19;;;0.53;81.87
35577;BME280;21680;52.400;16.920;2023-02-23T08:08:23;100721.54;;;0.57;81.89
35577;BME280;21680;52.400;16.920;2023-02-23T08:10:49;100715.91;;;0.62;82.01
35577;BME280;21680;52.400;16.920;2023-02-23T08:13:15;100718.01;;;0.67;81.90
35577;BME280;21680;52.400;16.920;2023-02-23T08:15:41;100710.27;;;0.73;81.81
35577;BME280;21680;52.400;16.920;2023-02-23T08:18:06;100703.56;;;0.77;82.01
35577;BME280;21680;52.400;16.920;2023-02-23T08:20:32;100702.85;;;0.82;81.92
35577;BME280;21680;52.400;16.920;2023-02-23T08:22:58;100700.89;;;0.88;82.09
35577;BME280;21680;52.400;16.920;2023-02-23T08:25:24;100699.11;;;0.94;81.94
35577;BME280;21680;52.400;16.920;2023-02-23T08:27:52;100700.33;;;1.00;81.95
35577;BME280;21680;52.400;16.920;2023-02-23T08:30:22;100703.82;;;1.08;81.97
35577;BME280;21680;52.400;16.920;2023-02-23T08:32:47;100700.80;;;1.14;82.10
35577;BME280;21680;52.400;16.920;2023-02-23T08:35:13;100701.83;;;1.21;82.08
35577;BME280;21680;52.400;16.920;2023-02-23T08:37:39;100704.08;;;1.28;82.20
35577;BME280;21680;52.400;16.920;2023-02-23T08:40:07;100701.58;;;1.35;82.15
35577;BME280;21680;52.400;16.920;2023-02-23T08:42:32;100698.38;;;1.43;82.18
35577;BME280;21680;52.400;16.920;2023-02-23T08:44:58;100700.09;;;1.51;82.26
35577;BME280;21680;52.400;16.920;2023-02-23T08:47:25;100702.85;;;1.60;82.18
35577;BME280;21680;52.400;16.920;2023-02-23T08:49:51;100693.81;;;1.70;82.09
35577;BME280;21680;52.400;16.920;2023-02-23T08:52:20;100688.80;;;1.80;82.22
35577;BME280;21680;52.400;16.920;2023-02-23T08:54:45;100684.16;;;1.89;82.22
35577;BME280;21680;52.400;16.920;2023-02-23T08:57:11;100677.77;;;1.97;82.37
35577;BME280;21680;52.400;16.920;2023-02-23T08:59:36;100678.05;;;2.05;82.25
35577;BME280;21680;52.400;16.920;2023-02-23T09:02:04;100677.10;;;2.12;82.16
35577;BME280;21680;52.400;16.920;2023-02-23T09:04:32;100668.22;;;2.21;82.10
35577;BME280;21680;52.400;16.920;2023-02-23T09:07:00;100670.77;;;2.30;82.33
35577;BME280;21680;52.400;16.920;2023-02-23T09:09:26;100666.98;;;2.40;82.44
35577;BME280;21680;52.400;16.920;2023-02-23T09:11:51;100664.98;;;2.46;82.25
35577;BME280;21680;52.400;16.920;2023-02-23T09:14:16;100665.11;;;2.51;82.22
35577;BME280;21680;52.400;16.920;2023-02-23T09:16:41;100664.52;;;2.57;82.23
35577;BME280;21680;52.400;16.920;2023-02-23T09:19:09;100664.74;;;2.65;82.28
35577;BME280;21680;52.400;16.920;2023-02-23T09:21:35;100663.59;;;2.74;82.39
35577;BME280;21680;52.400;16.920;2023-02-23T09:24:01;100660.69;;;2.80;82.21
35577;BME280;21680;52.400;16.920;2023-02-23T09:26:26;100658.11;;;2.90;82.32
35577;BME280;21680;52.400;16.920;2023-02-23T09:28:54;100654.95;;;3.04;82.61
35577;BME280;21680;52.400;16.920;2023-02-23T09:31:21;100656.59;;;3.13;82.35
35577;BME280;21680;52.400;16.920;2023-02-23T09:33:47;100655.57;;;3.24;82.44
35577;BME280;21680;52.400;16.920;2023-02-23T09:36:16;100656.85;;;3.33;82.28
35577;BME280;21680;52.400;16.920;2023-02-23T09:38:45;100651.58;;;3.44;82.40
35577;BME280;21680;52.400;16.920;2023-02-23T09:44:35;100648.11;;;3.65;82.33
35577;BME280;21680;52.400;16.920;2023-02-23T09:49:48;100647.55;;;3.77;82.05
35577;BME280;21680;52.400;16.920;2023-02-23T09:52:22;100648.67;;;3.84;81.93
35577;BME280;21680;52.400;16.920;2023-02-23T09:54:48;100642.19;;;3.92;82.03
35577;BME280;21680;52.400;16.920;2023-02-23T09:57:17;100639.05;;;4.00;82.30
35577;BME280;21680;52.400;16.920;2023-02-23T09:59:44;100640.17;;;4.07;81.89
35577;BME280;21680;52.400;16.920;2023-02-23T10:02:30;100639.84;;;4.16;82.31
35577;BME280;21680;52.400;16.920;2023-02-23T10:05:04;100640.77;;;4.24;82.09
35577;BME280;21680;52.400;16.920;2023-02-23T10:07:48;100639.66;;;4.26;81.84
35577;BME280;21680;52.400;16.920;2023-02-23T10:13:37;100632.02;;;4.38;81.90
35577;BME280;21680;52.400;16.920;2023-02-23T10:16:33;100634.48;;;4.48;81.97
35577;BME280;21680;52.400;16.920;2023-02-23T10:22:09;100626.54;;;4.66;81.70
35577;BME280;21680;52.400;16.920;2023-02-23T10:24:45;100626.04;;;4.73;81.68
35577;BME280;21680;52.400;16.920;2023-02-23T10:27:24;100623.11;;;4.78;81.65
35577;BME280;21680;52.400;16.920;2023-02-23T10:29:55;100615.98;;;4.88;81.61
35577;BME280;21680;52.400;16.920;2023-02-23T10:32:42;100618.16;;;5.03;81.70
35577;BME280;21680;52.400;16.920;2023-02-23T10:35:16;100613.38;;;5.12;81.47
35577;BME280;21680;52.400;16.920;2023-02-23T10:37:45;100610.90;;;5.19;81.46
35577;BME280;21680;52.400;16.920;2023-02-23T10:40:15;100603.69;;;5.32;81.68
35577;BME280;21680;52.400;16.920;2023-02-23T10:42:41;100601.39;;;5.46;81.60
35577;BME280;21680;52.400;16.920;2023-02-23T10:45:20;100597.80;;;5.57;81.49
35577;BME280;21680;52.400;16.920;2023-02-23T10:47:49;100594.63;;;5.63;81.33
35577;BME280;21680;52.400;16.920;2023-02-23T10:50:15;100589.81;;;5.72;81.40
35577;BME280;21680;52.400;16.920;2023-02-23T10:52:45;100591.03;;;5.80;81.19
35577;BME280;21680;52.400;16.920;2023-02-23T10:55:25;100583.83;;;5.92;81.24
35577;BME280;21680;52.400;16.920;2023-02-23T10:58:21;100581.28;;;6.02;81.16
35577;BME280;21680;52.400;16.920;2023-02-23T11:00:58;100578.14;;;6.00;80.79
35577;BME280;21680;52.400;16.920;2023-02-23T11:03:37;100574.90;;;6.02;80.94
35577;BME280;21680;52.400;16.920;2023-02-23T11:06:04;100573.39;;;6.05;80.72
35577;BME280;21680;52.400;16.920;2023-02-23T11:08:33;100569.11;;;6.13;80.78
35577;BME280;21680;52.400;16.920;2023-02-23T11:13:42;100556.30;;;6.40;80.85
35577;BME280;21680;52.400;16.920;2023-02-23T11:16:20;100552.00;;;6.54;80.65
35577;BME280;21680;52.400;16.920;2023-02-23T11:18:55;100552.48;;;6.62;80.42
35577;BME280;21680;52.400;16.920;2023-02-23T11:21:30;100542.99;;;6.71;80.46
35577;BME280;21680;52.400;16.920;2023-02-23T11:24:19;100539.60;;;6.78;80.31
35577;BME280;21680;52.400;16.920;2023-02-23T11:26:47;100529.27;;;6.84;80.16
35577;BME280;21680;52.400;16.920;2023-02-23T11:29:37;100528.70;;;6.92;80.21
35577;BME280;21680;52.400;16.920;2023-02-23T11:32:19;100522.98;;;6.99;79.98
35577;BME280;21680;52.400;16.920;2023-02-23T11:34:46;100513.83;;;6.96;79.70
35577;BME280;21680;52.400;16.920;2023-02-23T11:39:53;100506.73;;;7.07;79.80
35577;BME280;21680;52.400;16.920;2023-02-23T11:42:24;100501.95;;;7.06;79.40
35577;BME280;21680;52.400;16.920;2023-02-23T11:44:51;100503.16;;;7.08;79.50
35577;BME280;21680;52.400;16.920;2023-02-23T11:47:26;100498.60;;;7.06;79.24
35577;BME280;21680;52.400;16.920;2023-02-23T11:49:52;100499.70;;;7.10;79.20
35577;BME280;21680;52.400;16.920;2023-02-23T11:52:20;100496.89;;;7.21;79.36
35577;BME280;21680;52.400;16.920;2023-02-23T11:54:51;100499.27;;;7.30;79.21
35577;BME280;21680;52.400;16.920;2023-02-23T11:57:24;100496.11;;;7.44;79.20
35577;BME280;21680;52.400;16.920;2023-02-23T11:59:51;100490.04;;;7.56;79.00
35577;BME280;21680;52.400;16.920;2023-02-23T12:02:24;100489.69;;;7.66;78.93
35577;BME280;21680;52.400;16.920;2023-02-23T12:07:33;100476.16;;;7.91;78.89
35577;BME280;21680;52.400;16.920;2023-02-23T12:10:28;100470.69;;;8.00;78.72
35577;BME280;21680;52.400;16.920;2023-02-23T12:15:55;100474.92;;;8.26;78.53
35577;BME280;21680;52.400;16.920;2023-02-23T12:21:46;100472.92;;;8.37;78.34
35577;BME280;21680;52.400;16.920;2023-02-23T12:24:44;100468.34;;;8.41;78.21
35577;BME280;21680;52.400;16.920;2023-02-23T12:27:41;100466.91;;;8.46;78.04
35577;BME280;21680;52.400;16.920;2023-02-23T12:33:00;100458.15;;;8.65;78.07
35577;BME280;21680;52.400;16.920;2023-02-23T12:35:43;100454.29;;;8.73;77.89
35577;BME280;21680;52.400;16.920;2023-02-23T12:40:45;100448.27;;;8.86;77.73
35577;BME280;21680;52.400;16.920;2023-02-23T12:43:18;100444.38;;;8.89;77.58
35577;BME280;21680;52.400;16.920;2023-02-23T12:45:52;100436.98;;;9.01;77.50
35577;BME280;21680;52.400;16.920;2023-02-23T12:50:59;100431.40;;;9.32;77.60
35577;BME280;21680;52.400;16.920;2023-02-23T12:53:41;100430.95;;;9.47;77.47
35577;BME280;21680;52.400;16.920;2023-02-23T12:56:20;100425.73;;;9.57;77.11
35577;BME280;21680;52.400;16.920;2023-02-23T12:59:01;100425.83;;;9.66;77.08
35577;BME280;21680;52.400;16.920;2023-02-23T13:01:40;100419.36;;;9.76;76.82
35577;BME280;21680;52.400;16.920;2023-02-23T13:06:37;100415.21;;;9.81;76.70
35577;BME280;21680;52.400;16.920;2023-02-23T13:09:16;100406.70;;;9.80;76.51
35577;BME280;21680;52.400;16.920;2023-02-23T13:14:36;100399.33;;;9.89;76.41
35577;BME280;21680;52.400;16.920;2023-02-23T13:19:57;100391.27;;;10.14;76.14
35577;BME280;21680;52.400;16.920;2023-02-23T13:22:48;100391.80;;;10.37;76.55
35577;BME280;21680;52.400;16.920;2023-02-23T13:25:25;100388.65;;;10.43;76.10
35577;BME280;21680;52.400;16.920;2023-02-23T13:27:58;100386.56;;;10.38;75.74
35577;BME280;21680;52.400;16.920;2023-02-23T13:30:24;100387.95;;;10.39;75.60
35577;BME280;21680;52.400;16.920;2023-02-23T13:32:49;100389.40;;;10.46;75.65
35577;BME280;21680;52.400;16.920;2023-02-23T13:35:17;100384.55;;;10.54;75.65
35577;BME280;21680;52.400;16.920;2023-02-23T13:37:47;100379.27;;;10.60;75.40
35577;BME280;21680;52.400;16.920;2023-02-23T13:40:30;100375.14;;;10.60;75.29
35577;BME280;21680;52.400;16.920;2023-02-23T13:51:29;100368.08;;;10.88;75.02
35577;BME280;21680;52.400;16.920;2023-02-23T13:56:25;100362.75;;;11.01;74.66
35577;BME280;21680;52.400;16.920;2023-02-23T13:59:04;100358.86;;;11.01;74.48
35577;BME280;21680;52.400;16.920;2023-02-23T14:01:36;100356.74;;;11.00;74.20
35577;BME280;21680;52.400;16.920;2023-02-23T14:04:04;100345.58;;;11.05;74.33
35577;BME280;21680;52.400;16.920;2023-02-23T14:06:37;100346.88;;;11.11;74.22
35577;BME280;21680;52.400;16.920;2023-02-23T14:09:17;100345.08;;;11.05;74.11
35577;BME280;21680;52.400;16.920;2023-02-23T14:11:49;100338.81;;;10.97;73.82
35577;BME280;21680;52.400;16.920;2023-02-23T14:22:26;100334.76;;;10.79;73.32
35577;BME280;21680;52.400;16.920;2023-02-23T14:27:57;100331.47;;;10.43;72.84
35577;BME280;21680;52.400;16.920;2023-02-23T14:30:27;100336.50;;;10.32;72.70
35577;BME280;21680;52.400;16.920;2023-02-23T14:32:53;100335.38;;;10.26;72.74
35577;BME280;21680;52.400;16.920;2023-02-23T14:35:36;100334.17;;;10.17;72.67
35577;BME280;21680;52.400;16.920;2023-02-23T14:40:37;100326.88;;;9.89;72.36
35577;BME280;21680;52.400;16.920;2023-02-23T14:46:03;100322.06;;;9.93;72.29
35577;BME280;21680;52.400;16.920;2023-02-23T14:48:32;100323.91;;;9.91;72.34